Time;durP1;ratioP1;P1;durP2;ratioP2;P2;SDS_P1;SDS_P2;PMS_P1;PMS_P2;Temp;Humidity;BMP_temperature;BMP_pressure;BME280_temperature;BME280_humidity;BME280_pressure;Samples;Min_cycle;Max_cycle;Signal;HPM_P1;HPM_P2
2023/09/22 00:01:01;;;;;;;1.40;0.80;;;25.40;83.80;;;;;;6157786;23;20478;-87
2023/09/22 00:03:28;;;;;;;1.10;0.90;;;25.40;83.80;;;;;;6157878;23;20730;-87
2023/09/22 00:05:55;;;;;;;1.10;0.80;;;25.40;83.80;;;;;;6157285;23;20946;-87
2023/09/22 00:08:22;;;;;;;1.60;0.90;;;25.40;83.80;;;;;;6157759;23;20404;-87
2023/09/22 00:10:49;;;;;;;1.20;1.00;;;25.40;83.80;;;;;;6157619;23;20494;-87
2023/09/22 00:13:16;;;;;;;1.40;0.80;;;25.40;83.80;;;;;;6157719;23;20404;-87
2023/09/22 00:15:45;;;;;;;1.37;1.03;;;25.40;83.80;;;;;;6157744;23;20408;-87
2023/09/22 00:18:12;;;;;;;1.10;0.80;;;25.40;83.80;;;;;;6157648;23;20436;-87
2023/09/22 00:20:38;;;;;;;1.00;0.70;;;25.40;83.80;;;;;;6157397;23;20414;-87
2023/09/22 00:23:05;;;;;;;1.20;0.87;;;25.40;83.80;;;;;;6157237;23;20970;-87
2023/09/22 00:25:32;;;;;;;1.10;0.90;;;25.40;83.80;;;;;;6157220;23;20611;-87
2023/09/22 00:27:59;;;;;;;1.00;0.80;;;25.40;83.80;;;;;;6157132;23;20514;-87
2023/09/22 00:30:27;;;;;;;1.20;1.10;;;25.40;83.80;;;;;;6157354;23;20430;-87
2023/09/22 00:32:55;;;;;;;1.40;0.90;;;25.40;83.80;;;;;;6157427;23;20419;-87
2023/09/22 00:35:22;;;;;;;1.10;0.80;;;25.40;83.80;;;;;;6157430;23;20507;-87
2023/09/22 00:37:50;;;;;;;1.07;0.80;;;25.40;83.80;;;;;;6157464;23;20400;-87
2023/09/22 00:40:16;;;;;;;1.30;0.80;;;25.40;83.80;;;;;;6157343;23;20732;-87
2023/09/22 00:42:43;;;;;;;1.00;0.70;;;25.30;83.70;;;;;;6156848;23;20713;-87
2023/09/22 00:45:10;;;;;;;1.10;0.90;;;25.40;83.70;;;;;;6157365;23;20800;-87
2023/09/22 00:47:37;;;;;;;1.10;0.90;;;25.40;83.70;;;;;;6157282;23;20455;-87
2023/09/22 00:50:08;;;;;;;1.10;0.90;;;25.40;83.70;;;;;;6157335;23;20799;-87
2023/09/22 00:52:36;;;;;;;1.10;0.80;;;25.40;83.70;;;;;;6157377;23;20416;-87
2023/09/22 00:55:03;;;;;;;1.00;0.70;;;25.30;83.60;;;;;;6157045;23;20388;-87
2023/09/22 00:57:30;;;;;;;1.20;0.80;;;25.40;83.70;;;;;;6157388;23;20427;-87
2023/09/22 00:59:57;;;;;;;1.00;0.80;;;25.40;83.70;;;;;;6156996;23;20484;-87
2023/09/22 01:02:25;;;;;;;1.10;0.97;;;25.30;83.60;;;;;;6157157;23;20423;-87
2023/09/22 01:04:52;;;;;;;1.40;0.90;;;25.30;83.60;;;;;;6157202;23;20426;-87
2023/09/22 01:07:20;;;;;;;1.20;1.03;;;25.30;83.60;;;;;;6157055;23;20454;-87
2023/09/22 01:09:47;;;;;;;1.30;0.90;;;25.30;83.60;;;;;;6157127;23;20404;-87
2023/09/22 01:12:14;;;;;;;1.10;0.90;;;25.30;83.60;;;;;;6156717;23;20410;-87
2023/09/22 01:14:42;;;;;;;1.00;0.70;;;25.40;83.70;;;;;;6157105;23;20442;-87
2023/09/22 01:17:09;;;;;;;1.00;0.80;;;25.30;83.50;;;;;;6156960;23;20412;-87
2023/09/22 01:19:35;;;;;;;1.47;0.80;;;25.30;83.50;;;;;;6157127;23;20414;-87
2023/09/22 01:22:05;;;;;;;1.00;0.77;;;25.30;83.50;;;;;;6156958;23;20812;-87
2023/09/22 01:24:31;;;;;;;1.07;0.77;;;25.30;83.50;;;;;;6157057;23;20733;-87
2023/09/22 01:26:58;;;;;;;1.23;1.00;;;25.30;83.50;;;;;;6156645;23;20530;-87
2023/09/22 01:29:25;;;;;;;1.00;0.70;;;25.30;83.50;;;;;;6156875;23;20392;-87
2023/09/22 01:31:52;;;;;;;1.10;0.80;;;25.30;83.50;;;;;;6156805;23;20428;-87
2023/09/22 01:34:20;;;;;;;1.10;0.70;;;25.30;83.50;;;;;;6156919;23;20771;-87
2023/09/22 01:36:48;;;;;;;1.10;0.90;;;25.30;83.40;;;;;;6156989;23;20444;-87
2023/09/22 01:39:16;;;;;;;1.10;0.80;;;25.30;83.40;;;;;;6156967;23;20435;-87
2023/09/22 01:41:43;;;;;;;1.20;0.80;;;25.30;83.40;;;;;;6156278;23;20395;-87
2023/09/22 01:44:10;;;;;;;1.23;0.80;;;25.30;83.30;;;;;;6156785;23;20482;-87
2023/09/22 01:46:37;;;;;;;1.40;0.90;;;25.30;83.40;;;;;;6156358;23;20462;-87
2023/09/22 01:49:04;;;;;;;1.30;0.87;;;25.30;83.30;;;;;;6156897;23;20727;-87
2023/09/22 01:51:31;;;;;;;1.20;0.90;;;25.30;83.30;;;;;;6156299;23;20482;-87
2023/09/22 01:53:57;;;;;;;1.17;0.87;;;25.30;83.30;;;;;;6156060;23;20910;-87
2023/09/22 01:56:26;;;;;;;1.00;0.80;;;25.30;83.30;;;;;;6156711;23;20427;-87
2023/09/22 01:58:52;;;;;;;1.10;0.87;;;25.30;84.20;;;;;;6156238;23;20402;-87
2023/09/22 02:01:20;;;;;;;1.00;0.80;;;25.30;83.30;;;;;;6156333;23;20478;-87
2023/09/22 02:03:47;;;;;;;1.10;0.87;;;25.30;83.30;;;;;;6156654;23;20404;-88
2023/09/22 02:06:13;;;;;;;1.27;0.90;;;25.30;83.30;;;;;;6156605;23;20771;-87
2023/09/22 02:08:40;;;;;;;1.40;0.93;;;25.30;84.10;;;;;;6156276;23;20404;-87
2023/09/22 02:11:07;;;;;;;4.13;1.00;;;25.30;83.30;;;;;;6156505;23;20490;-87
2023/09/22 02:13:35;;;;;;;1.10;0.80;;;25.20;83.20;;;;;;6156562;23;20487;-87
2023/09/22 02:16:03;;;;;;;1.50;0.90;;;25.30;83.30;;;;;;6156502;23;20721;-87
2023/09/22 02:18:30;;;;;;;1.00;0.77;;;25.30;83.30;;;;;;6155992;23;20706;-87
2023/09/22 02:20:57;;;;;;;1.17;0.80;;;25.30;83.20;;;;;;6156422;23;20476;-87
2023/09/22 02:23:27;;;;;;;1.10;0.83;;;25.20;83.20;;;;;;6156445;23;20446;-87
2023/09/22 02:25:54;;;;;;;1.00;0.70;;;25.20;83.20;;;;;;6156414;23;20388;-87
2023/09/22 02:28:21;;;;;;;1.20;0.90;;;25.20;83.10;;;;;;6155762;23;20515;-87
2023/09/22 02:30:50;;;;;;;1.00;0.70;;;25.20;83.10;;;;;;6155926;23;20411;-87
2023/09/22 02:33:16;;;;;;;1.10;0.70;;;25.20;83.10;;;;;;6156339;23;20811;-87
2023/09/22 02:35:43;;;;;;;1.10;0.80;;;25.20;83.10;;;;;;6156289;23;20443;-87
2023/09/22 02:38:10;;;;;;;1.10;0.80;;;25.20;83.10;;;;;;6156238;23;20407;-87
2023/09/22 02:40:37;;;;;;;1.20;0.83;;;25.20;83.20;;;;;;6155916;23;20490;-87
2023/09/22 02:43:06;;;;;;;1.10;0.80;;;25.20;83.00;;;;;;6156306;23;20446;-87
2023/09/22 02:45:37;;;;;;;1.30;1.00;;;25.20;83.10;;;;;;6155911;23;20403;-87
2023/09/22 02:48:06;;;;;;;1.00;0.70;;;25.20;83.10;;;;;;6155935;23;20442;-87
2023/09/22 02:50:33;;;;;;;1.10;0.90;;;25.20;83.00;;;;;;6155769;23;20404;-87
2023/09/22 02:53:03;;;;;;;1.10;0.80;;;25.20;83.00;;;;;;6155916;23;20414;-87
2023/09/22 02:55:30;;;;;;;1.20;0.87;;;25.20;83.00;;;;;;6155915;23;20396;-87
2023/09/22 02:57:57;;;;;;;1.00;0.80;;;25.20;83.10;;;;;;6155695;23;20435;-87
2023/09/22 03:00:24;;;;;;;1.10;0.90;;;25.20;83.00;;;;;;6155727;23;20401;-87
2023/09/22 03:02:52;;;;;;;1.00;0.77;;;25.20;83.00;;;;;;6156083;23;20506;-87
2023/09/22 03:05:21;;;;;;;1.20;1.00;;;25.20;83.00;;;;;;6156149;23;20474;-87
2023/09/22 03:07:49;;;;;;;1.00;0.80;;;25.20;82.90;;;;;;6156035;23;20543;-87
2023/09/22 03:10:17;;;;;;;1.40;1.10;;;25.20;82.90;;;;;;6156090;23;20407;-87
2023/09/22 03:12:44;;;;;;;1.17;0.97;;;25.20;82.90;;;;;;6156146;23;20490;-87
2023/09/22 03:15:12;;;;;;;1.00;0.70;;;25.20;83.00;;;;;;6156102;23;20458;-87
2023/09/22 03:17:39;;;;;;;1.00;0.90;;;25.20;82.90;;;;;;6156021;23;20450;-87
2023/09/22 03:20:07;;;;;;;1.03;0.80;;;25.20;83.00;;;;;;6156052;23;20538;-87
2023/09/22 03:22:36;;;;;;;1.00;0.70;;;25.20;82.90;;;;;;6156113;23;20776;-87
2023/09/22 03:25:04;;;;;;;1.30;1.00;;;25.20;82.90;;;;;;6155761;23;20400;-87
2023/09/22 03:27:33;;;;;;;1.00;0.80;;;25.20;82.80;;;;;;6155626;23;20451;-87
2023/09/22 03:30:00;;;;;;;1.00;0.80;;;25.20;83.60;;;;;;6156037;23;20407;-87
2023/09/22 03:32:27;;;;;;;1.10;0.90;;;25.20;82.80;;;;;;6155540;23;20426;-87
2023/09/22 03:34:54;;;;;;;1.10;0.80;;;25.20;82.80;;;;;;6156072;23;20431;-87
2023/09/22 03:37:22;;;;;;;1.00;0.77;;;25.20;83.60;;;;;;6156003;23;20407;-87
2023/09/22 03:39:50;;;;;;;1.20;1.00;;;25.20;82.80;;;;;;6155960;23;20411;-87
2023/09/22 03:42:17;;;;;;;1.13;0.80;;;25.20;82.80;;;;;;6155981;23;20414;-87
2023/09/22 03:44:44;;;;;;;1.20;0.90;;;25.10;82.70;;;;;;6156062;23;20784;-87
2023/09/22 03:47:11;;;;;;;1.03;0.80;;;25.10;82.70;;;;;;6155911;23;20451;-87
2023/09/22 03:49:38;;;;;;;1.17;0.90;;;25.20;82.70;;;;;;6155892;23;20414;-87
2023/09/22 03:52:05;;;;;;;0.97;0.70;;;25.20;82.70;;;;;;6155957;23;20752;-87
2023/09/22 03:54:32;;;;;;;1.00;0.80;;;25.10;82.70;;;;;;6155863;23;20451;-87
2023/09/22 03:57:01;;;;;;;1.00;0.70;;;25.10;82.70;;;;;;6155947;23;20419;-87
2023/09/22 03:59:29;;;;;;;1.20;0.70;;;25.10;82.60;;;;;;6155748;23;20408;-87
2023/09/22 04:01:56;;;;;;;1.00;0.87;;;25.10;82.70;;;;;;6155799;23;20795;-87
2023/09/22 04:04:23;;;;;;;1.00;0.80;;;25.10;82.50;;;;;;6156038;23;20406;-86
2023/09/22 04:06:50;;;;;;;1.20;0.90;;;25.20;82.60;;;;;;6155693;23;20435;-87
2023/09/22 04:09:17;;;;;;;1.00;0.77;;;25.10;82.60;;;;;;6155550;23;20926;-87
2023/09/22 04:11:44;;;;;;;1.17;0.97;;;25.10;82.50;;;;;;6155883;23;20482;-87
2023/09/22 04:14:12;;;;;;;1.10;0.83;;;25.10;82.60;;;;;;6155879;23;20411;-87
2023/09/22 04:16:39;;;;;;;1.70;0.80;;;25.10;82.50;;;;;;6156348;23;20435;-87
2023/09/22 04:19:09;;;;;;;1.03;0.77;;;25.20;82.60;;;;;;6157445;23;20403;-87
2023/09/22 04:21:42;;;;;;;1.00;0.70;;;25.10;82.50;;;;;;6157587;23;20392;-87
2023/09/22 04:24:09;;;;;;;1.10;0.90;;;25.10;82.40;;;;;;6157558;23;20790;-87
2023/09/22 04:26:42;;;;;;;1.33;0.90;;;25.10;82.40;;;;;;6157079;23;20903;-87
2023/09/22 04:29:09;;;;;;;1.00;0.77;;;25.10;82.50;;;;;;6157023;23;20435;-87
2023/09/22 04:31:38;;;;;;;1.20;0.80;;;25.10;82.60;;;;;;6157362;23;20531;-87
2023/09/22 04:34:05;;;;;;;1.10;0.73;;;25.10;82.50;;;;;;6157470;23;20912;-87
2023/09/22 04:36:32;;;;;;;1.17;0.80;;;25.10;82.50;;;;;;6157388;23;20895;-87
2023/09/22 04:39:00;;;;;;;1.03;0.80;;;25.10;82.60;;;;;;6157609;23;20474;-87
2023/09/22 04:41:26;;;;;;;1.87;0.90;;;25.10;82.50;;;;;;6157361;23;20404;-87
2023/09/22 04:43:54;;;;;;;1.20;0.90;;;25.10;83.30;;;;;;6157493;23;20399;-87
2023/09/22 04:46:21;;;;;;;2.17;0.93;;;25.10;82.50;;;;;;6156994;23;20400;-87
2023/09/22 04:48:51;;;;;;;1.10;0.70;;;25.10;82.40;;;;;;6156976;23;20491;-87
2023/09/22 04:51:19;;;;;;;1.00;0.73;;;25.10;82.50;;;;;;6156949;23;20439;-87
2023/09/22 04:53:47;;;;;;;1.10;0.80;;;25.10;82.50;;;;;;6157240;23;20733;-87
2023/09/22 04:56:13;;;;;;;1.00;0.80;;;25.10;82.50;;;;;;6156915;23;20491;-87
2023/09/22 04:58:40;;;;;;;1.20;0.97;;;25.10;83.40;;;;;;6157087;23;20431;-87
2023/09/22 05:01:08;;;;;;;1.00;0.80;;;25.00;82.40;;;;;;6156839;23;20491;-87
2023/09/22 05:03:35;;;;;;;1.30;1.10;;;25.10;83.30;;;;;;6157154;23;20423;-87
2023/09/22 05:06:09;;;;;;;1.10;0.77;;;25.00;82.40;;;;;;6157125;23;20725;-87
2023/09/22 05:08:37;;;;;;;1.00;0.80;;;25.10;82.30;;;;;;6156837;23;20438;-87
2023/09/22 05:11:05;;;;;;;0.97;0.70;;;25.10;82.40;;;;;;6156626;23;20400;-87
2023/09/22 05:13:32;;;;;;;1.30;0.70;;;25.00;82.40;;;;;;6156914;23;20411;-87
2023/09/22 05:16:09;;;;;;;1.20;0.90;;;25.00;82.40;;;;;;6157047;23;20410;-87
2023/09/22 05:18:35;;;;;;;1.00;0.80;;;25.00;82.40;;;;;;6157116;23;20492;-87
2023/09/22 05:21:02;;;;;;;1.10;0.90;;;25.00;82.30;;;;;;6157126;23;20487;-87
2023/09/22 05:23:32;;;;;;;1.10;0.90;;;25.00;82.40;;;;;;6157186;23;20423;-87
2023/09/22 05:25:59;;;;;;;0.93;0.70;;;25.00;82.30;;;;;;6157316;23;20839;-87
2023/09/22 05:28:26;;;;;;;1.00;0.73;;;25.00;82.40;;;;;;6155830;23;20783;-86
2023/09/22 05:30:52;;;;;;;1.20;1.00;;;25.00;82.30;;;;;;6156903;23;20414;-87
2023/09/22 05:33:19;;;;;;;1.10;0.93;;;25.00;82.20;;;;;;6156819;23;20814;-87
2023/09/22 05:35:47;;;;;;;1.50;0.80;;;25.00;82.30;;;;;;6156932;23;20442;-87
2023/09/22 05:38:14;;;;;;;1.00;0.70;;;25.00;82.30;;;;;;6156894;23;20408;-87
2023/09/22 05:40:43;;;;;;;1.20;1.00;;;25.00;82.20;;;;;;6156865;23;20486;-87
2023/09/22 05:43:10;;;;;;;1.03;0.77;;;25.00;82.30;;;;;;6156809;23;20396;-87
2023/09/22 05:45:37;;;;;;;1.10;0.80;;;25.00;82.20;;;;;;6156886;23;20404;-87
2023/09/22 05:48:07;;;;;;;1.10;0.87;;;25.00;82.10;;;;;;6156873;23;20451;-87
2023/09/22 05:50:35;;;;;;;0.90;0.60;;;25.00;82.20;;;;;;6156581;23;20404;-87
2023/09/22 05:53:01;;;;;;;1.00;0.60;;;25.00;82.30;;;;;;6156437;23;20407;-87
2023/09/22 05:55:30;;;;;;;1.10;0.80;;;25.00;82.30;;;;;;6156313;23;20407;-87
2023/09/22 05:57:58;;;;;;;1.30;0.90;;;25.00;82.30;;;;;;6156153;23;20876;-87
2023/09/22 06:00:26;;;;;;;1.07;0.80;;;25.00;82.30;;;;;;6156668;23;20400;-86
2023/09/22 06:02:54;;;;;;;1.67;0.87;;;25.00;82.30;;;;;;6156477;23;20718;-87
2023/09/22 06:05:22;;;;;;;1.40;1.00;;;25.00;82.30;;;;;;6156644;23;20731;-87
2023/09/22 06:07:49;;;;;;;1.20;0.70;;;25.00;82.20;;;;;;6156221;23;20439;-87
2023/09/22 06:10:16;;;;;;;1.10;0.90;;;25.00;82.20;;;;;;6156896;23;20404;-87
2023/09/22 06:12:43;;;;;;;1.10;0.90;;;25.00;82.10;;;;;;6156704;23;20439;-87
2023/09/22 06:15:12;;;;;;;1.07;0.80;;;25.00;82.00;;;;;;6156523;23;20946;-87
2023/09/22 06:17:39;;;;;;;1.10;0.80;;;25.00;82.10;;;;;;6156334;23;20404;-87
2023/09/22 06:20:13;;;;;;;1.10;0.80;;;25.00;82.10;;;;;;6156478;23;20491;-87
2023/09/22 06:22:40;;;;;;;1.20;1.00;;;25.00;82.00;;;;;;6156516;23;20384;-87
2023/09/22 06:25:08;;;;;;;1.20;0.90;;;25.00;82.10;;;;;;6156090;23;20910;-87
2023/09/22 06:27:35;;;;;;;1.10;1.00;;;25.00;82.20;;;;;;6156045;23;20455;-87
2023/09/22 06:30:03;;;;;;;1.10;0.80;;;25.00;81.90;;;;;;6156177;23;20891;-86
2023/09/22 06:32:33;;;;;;;1.00;0.80;;;25.00;83.00;;;;;;6156336;23;20481;-87
2023/09/22 06:35:00;;;;;;;1.13;0.77;;;25.00;82.00;;;;;;6156564;23;20407;-87
2023/09/22 06:37:27;;;;;;;1.73;0.90;;;25.00;82.10;;;;;;6156058;23;20819;-87
2023/09/22 06:39:54;;;;;;;1.10;0.90;;;25.00;82.10;;;;;;6156081;23;20435;-87
2023/09/22 06:42:22;;;;;;;1.10;0.70;;;25.00;82.10;;;;;;6156381;23;20438;-87
2023/09/22 06:44:48;;;;;;;1.00;0.67;;;25.00;81.90;;;;;;6156381;23;20727;-87
2023/09/22 06:47:15;;;;;;;1.10;0.70;;;25.00;82.00;;;;;;6155831;23;20427;-87
2023/09/22 06:49:43;;;;;;;1.00;0.77;;;25.00;82.00;;;;;;6156143;23;20409;-87
2023/09/22 06:52:10;;;;;;;1.20;0.80;;;25.00;81.80;;;;;;6156237;23;20410;-87
2023/09/22 06:54:37;;;;;;;0.90;0.60;;;25.00;81.90;;;;;;6156278;23;20404;-87
2023/09/22 06:57:05;;;;;;;1.40;0.90;;;25.00;82.00;;;;;;6155963;23;20910;-87
2023/09/22 06:59:32;;;;;;;1.10;0.80;;;25.00;82.10;;;;;;6155664;23;20443;-87
2023/09/22 07:01:59;;;;;;;1.27;0.80;;;25.00;82.00;;;;;;6156140;23;20427;-87
2023/09/22 07:04:27;;;;;;;1.10;0.90;;;25.00;81.90;;;;;;6156120;23;20447;-87
2023/09/22 07:06:55;;;;;;;1.00;0.80;;;25.10;81.80;;;;;;6155744;23;20408;-87
2023/09/22 07:09:22;;;;;;;1.20;0.87;;;25.10;81.90;;;;;;6155626;23;20951;-87
2023/09/22 07:11:49;;;;;;;1.10;0.87;;;25.10;81.80;;;;;;6156027;23;20438;-87
2023/09/22 07:14:16;;;;;;;1.00;0.70;;;25.10;82.00;;;;;;6155721;23;20733;-87
2023/09/22 07:16:44;;;;;;;1.10;0.90;;;25.10;81.90;;;;;;6155877;23;20418;-87
2023/09/22 07:19:11;;;;;;;1.00;0.80;;;25.10;81.80;;;;;;6155913;23;20412;-87
2023/09/22 07:21:38;;;;;;;1.00;0.70;;;25.10;82.00;;;;;;6156070;23;20491;-87
2023/09/22 07:24:08;;;;;;;2.30;0.80;;;25.10;82.00;;;;;;6156024;23;20411;-87
2023/09/22 07:26:34;;;;;;;1.00;0.80;;;25.20;82.30;;;;;;6155748;23;20408;-87
2023/09/22 07:29:01;;;;;;;1.10;0.70;;;25.20;82.30;;;;;;6155898;23;20486;-87
2023/09/22 07:31:30;;;;;;;1.20;1.00;;;25.20;83.30;;;;;;6155631;23;20435;-87
2023/09/22 07:33:57;;;;;;;1.20;0.90;;;25.20;82.40;;;;;;6156089;23;20411;-87
2023/09/22 07:36:24;;;;;;;1.00;0.80;;;25.20;82.40;;;;;;6155997;23;20404;-87
2023/09/22 07:38:51;;;;;;;1.00;0.70;;;25.20;82.40;;;;;;6155607;23;20403;-87
2023/09/22 07:41:20;;;;;;;1.00;0.70;;;25.20;82.60;;;;;;6155648;23;20730;-87
2023/09/22 07:43:47;;;;;;;0.90;0.60;;;25.20;82.50;;;;;;6155753;23;20404;-87
2023/09/22 07:46:14;;;;;;;1.10;0.80;;;25.20;82.50;;;;;;6155978;23;20503;-87
2023/09/22 07:48:40;;;;;;;1.00;0.70;;;25.20;82.50;;;;;;6155923;23;20450;-87
2023/09/22 07:51:07;;;;;;;1.10;1.00;;;25.20;82.60;;;;;;6155862;23;20406;-87
2023/09/22 07:53:34;;;;;;;1.10;0.90;;;25.20;82.50;;;;;;6157451;23;20446;-87
2023/09/22 07:56:01;;;;;;;2.90;0.77;;;25.20;82.30;;;;;;6157857;23;20402;-87
2023/09/22 07:58:30;;;;;;;1.10;0.80;;;25.20;82.30;;;;;;6157680;23;20483;-87
2023/09/22 08:00:59;;;;;;;1.10;0.80;;;25.30;82.30;;;;;;6157783;23;20403;-87
2023/09/22 08:03:26;;;;;;;1.10;0.80;;;25.30;82.30;;;;;;6157689;23;20424;-87
2023/09/22 08:05:53;;;;;;;1.30;0.73;;;25.30;82.40;;;;;;6157679;23;20523;-87
2023/09/22 08:08:20;;;;;;;1.93;0.70;;;25.30;82.40;;;;;;6157338;23;20526;-87
2023/09/22 08:10:47;;;;;;;0.93;0.63;;;25.30;82.40;;;;;;6157274;23;20951;-87
2023/09/22 08:13:14;;;;;;;1.17;0.70;;;25.30;82.40;;;;;;6157669;23;20408;-87
2023/09/22 08:15:43;;;;;;;1.00;0.70;;;25.30;82.40;;;;;;6157664;23;20407;-87
2023/09/22 08:18:10;;;;;;;1.10;0.90;;;25.30;82.40;;;;;;6157202;23;20966;-87
2023/09/22 08:20:37;;;;;;;1.00;0.60;;;25.40;82.60;;;;;;6157201;23;20407;-87
2023/09/22 08:23:04;;;;;;;1.00;0.70;;;25.40;82.50;;;;;;6157243;23;20404;-87
2023/09/22 08:25:31;;;;;;;2.20;0.90;;;25.40;82.50;;;;;;6157192;23;20407;-87
2023/09/22 08:27:58;;;;;;;1.00;0.77;;;25.40;82.50;;;;;;6157079;23;20739;-87
2023/09/22 08:30:25;;;;;;;1.00;0.70;;;25.40;82.50;;;;;;6157501;23;20424;-87
2023/09/22 08:32:54;;;;;;;1.10;0.80;;;25.40;82.50;;;;;;6157491;23;20424;-87
2023/09/22 08:35:21;;;;;;;1.20;0.70;;;25.40;82.50;;;;;;6157424;23;20399;-87
2023/09/22 08:37:49;;;;;;;1.30;0.90;;;25.40;82.50;;;;;;6157277;23;20408;-87
2023/09/22 08:40:17;;;;;;;1.73;0.80;;;25.50;82.60;;;;;;6157361;23;20462;-87
2023/09/22 08:42:45;;;;;;;1.00;0.77;;;25.50;82.60;;;;;;6157121;23;20520;-87
2023/09/22 08:45:13;;;;;;;1.50;0.80;;;25.50;82.50;;;;;;6157598;23;20463;-87
2023/09/22 08:47:41;;;;;;;1.53;0.90;;;25.50;82.40;;;;;;6157388;23;20396;-87
2023/09/22 08:50:12;;;;;;;1.07;0.80;;;25.60;83.40;;;;;;6157343;23;20491;-87
2023/09/22 08:52:40;;;;;;;1.20;0.90;;;25.60;82.50;;;;;;6157366;23;20711;-87
2023/09/22 08:55:11;;;;;;;1.40;0.90;;;25.60;82.50;;;;;;6156851;23;20799;-87
2023/09/22 08:57:40;;;;;;;1.20;0.70;;;25.60;82.40;;;;;;6157446;23;20384;-87
2023/09/22 09:00:12;;;;;;;1.00;0.70;;;25.60;82.30;;;;;;6157425;23;20482;-87
2023/09/22 09:02:39;;;;;;;1.10;0.90;;;25.60;82.30;;;;;;6157223;23;20420;-87
2023/09/22 09:05:22;;;;;;;1.10;0.80;;;25.60;82.30;;;;;;6157300;23;20400;-87
2023/09/22 09:07:50;;;;;;;1.10;0.80;;;25.60;82.30;;;;;;6157054;23;20783;-87
2023/09/22 09:10:27;;;;;;;1.10;0.80;;;25.60;82.30;;;;;;6156786;23;20487;-87
2023/09/22 09:12:54;;;;;;;1.00;0.70;;;25.60;82.40;;;;;;6156755;23;20403;-87
2023/09/22 09:15:25;;;;;;;1.07;0.83;;;25.60;82.40;;;;;;6156887;23;20487;-87
2023/09/22 09:18:08;;;;;;;1.10;0.83;;;25.60;82.40;;;;;;6156618;23;20412;-87
2023/09/22 09:20:40;;;;;;;1.10;0.80;;;25.60;82.50;;;;;;6154407;23;20408;-87
2023/09/22 09:23:15;;;;;;;1.10;0.70;;;25.60;82.50;;;;;;6156775;23;20887;-87
2023/09/22 09:25:46;;;;;;;1.10;0.77;;;25.60;82.40;;;;;;6156976;23;20406;-87
2023/09/22 09:28:14;;;;;;;1.00;0.70;;;25.60;82.40;;;;;;6156258;23;20443;-87
2023/09/22 09:30:49;;;;;;;1.17;0.80;;;25.60;82.30;;;;;;6156923;23;20498;-87
2023/09/22 09:33:16;;;;;;;1.10;0.80;;;25.60;82.30;;;;;;6156849;23;20432;-87
2023/09/22 09:35:45;;;;;;;1.00;0.70;;;25.60;82.30;;;;;;6156491;23;20495;-87
2023/09/22 09:38:13;;;;;;;1.20;0.90;;;25.60;82.30;;;;;;6156413;23;20399;-87
2023/09/22 09:40:40;;;;;;;1.20;0.80;;;25.60;82.30;;;;;;6156840;23;20892;-87
2023/09/22 09:43:10;;;;;;;1.03;0.80;;;25.60;82.30;;;;;;6156886;23;20407;-87
2023/09/22 09:45:44;;;;;;;1.20;0.70;;;25.60;82.40;;;;;;6156784;23;20404;-87
2023/09/22 09:48:13;;;;;;;1.20;0.80;;;25.60;82.40;;;;;;6156869;23;20384;-87
2023/09/22 09:50:44;;;;;;;1.07;0.80;;;25.60;82.50;;;;;;6156485;23;20471;-87
2023/09/22 09:53:22;;;;;;;1.00;0.70;;;25.60;82.50;;;;;;6157005;23;20418;-87
2023/09/22 09:55:52;;;;;;;1.10;0.70;;;25.60;82.50;;;;;;6156518;23;20400;-87
2023/09/22 09:58:21;;;;;;;1.00;0.70;;;25.50;82.50;;;;;;6156343;23;20400;-87
2023/09/22 10:00:49;;;;;;;1.70;0.70;;;25.50;82.50;;;;;;6156566;23;20403;-87
2023/09/22 10:03:17;;;;;;;1.30;0.80;;;25.50;82.50;;;;;;6156687;23;20495;-87
2023/09/22 10:05:46;;;;;;;0.97;0.70;;;25.50;82.50;;;;;;6156692;23;20406;-87
2023/09/22 10:08:14;;;;;;;1.00;0.73;;;25.50;82.60;;;;;;6156282;23;20400;-87
2023/09/22 10:10:42;;;;;;;1.10;0.83;;;25.50;82.60;;;;;;6156522;23;20462;-87
2023/09/22 10:13:09;;;;;;;1.00;0.70;;;25.50;82.60;;;;;;6156586;23;20709;-87
2023/09/22 10:15:56;;;;;;;1.10;0.87;;;25.50;82.60;;;;;;6155935;23;20487;-87
2023/09/22 10:18:44;;;;;;;1.10;0.80;;;25.50;82.60;;;;;;6156577;23;20483;-87
2023/09/22 10:21:36;;;;;;;1.00;0.70;;;25.50;82.60;;;;;;6156584;23;20388;-87
2023/09/22 10:24:17;;;;;;;1.10;0.80;;;25.50;82.60;;;;;;6156698;23;20392;-87
2023/09/22 10:27:13;;;;;;;1.53;0.80;;;25.50;82.50;;;;;;6156372;23;20399;-87
2023/09/22 10:29:54;;;;;;;1.20;0.80;;;25.50;82.60;;;;;;6155961;23;20447;-87
2023/09/22 10:32:26;;;;;;;0.97;0.70;;;25.50;82.60;;;;;;6156294;23;20490;-87
2023/09/22 10:34:54;;;;;;;1.10;0.70;;;25.50;82.50;;;;;;6156116;23;20918;-87
2023/09/22 10:37:22;;;;;;;1.03;0.80;;;25.60;82.50;;;;;;6156256;23;20404;-87
2023/09/22 10:39:56;;;;;;;1.10;0.80;;;25.60;82.50;;;;;;6156094;23;20430;-87
2023/09/22 10:42:24;;;;;;;1.00;0.70;;;25.60;82.40;;;;;;6156327;23;20800;-87
2023/09/22 10:45:02;;;;;;;1.00;0.80;;;25.60;82.40;;;;;;6156515;23;20414;-88
2023/09/22 10:47:39;;;;;;;1.30;0.87;;;25.70;82.50;;;;;;6156239;23;20432;-87
2023/09/22 10:50:14;;;;;;;1.00;0.80;;;25.70;82.50;;;;;;6155761;23;20470;-87
2023/09/22 10:52:42;;;;;;;1.10;0.80;;;25.70;82.40;;;;;;6156233;23;20387;-88
2023/09/22 10:55:12;;;;;;;1.10;0.80;;;25.70;83.20;;;;;;6156334;23;20499;-87
2023/09/22 10:57:39;;;;;;;1.10;0.70;;;25.80;82.30;;;;;;6155741;23;20959;-88
2023/09/22 11:00:13;;;;;;;1.00;0.73;;;25.80;82.30;;;;;;6156206;23;20502;-87
2023/09/22 11:02:40;;;;;;;1.50;0.90;;;25.80;82.40;;;;;;6156092;23;20423;-87
2023/09/22 11:05:08;;;;;;;1.50;0.80;;;25.80;82.40;;;;;;6156213;23;20399;-88
2023/09/22 11:07:36;;;;;;;1.10;0.70;;;25.80;82.30;;;;;;6155774;23;20408;-87
2023/09/22 11:10:04;;;;;;;1.00;0.80;;;25.90;82.40;;;;;;6156016;23;20454;-88
2023/09/22 11:12:33;;;;;;;1.30;0.70;;;25.90;82.30;;;;;;6156095;23;20450;-88
2023/09/22 11:15:01;;;;;;;1.00;0.70;;;26.00;82.40;;;;;;6156135;23;20400;-88
2023/09/22 11:17:46;;;;;;;1.20;0.77;;;26.00;82.40;;;;;;6156092;23;20410;-88
2023/09/22 11:20:18;;;;;;;1.10;0.90;;;26.00;82.30;;;;;;6153748;23;20495;-88
2023/09/22 11:22:45;;;;;;;1.27;0.90;;;26.10;82.30;;;;;;6156147;23;20495;-88
2023/09/22 11:25:12;;;;;;;1.17;0.80;;;26.10;82.20;;;;;;6155813;23;20404;-88
2023/09/22 11:27:45;;;;;;;1.00;0.70;;;26.10;82.20;;;;;;6157760;23;20436;-88
2023/09/22 11:30:16;;;;;;;1.00;0.70;;;26.20;82.20;;;;;;6157927;23;20447;-88
2023/09/22 11:32:44;;;;;;;1.03;0.77;;;26.20;82.20;;;;;;6157669;23;20424;-88
2023/09/22 11:35:27;;;;;;;1.00;0.70;;;26.20;82.20;;;;;;6157964;23;20406;-88
2023/09/22 11:37:55;;;;;;;1.17;0.80;;;26.30;82.30;;;;;;6157941;23;20392;-88
2023/09/22 11:40:22;;;;;;;1.00;0.70;;;26.30;82.20;;;;;;6157893;23;20958;-88
2023/09/22 11:42:50;;;;;;;1.00;0.70;;;26.30;82.20;;;;;;6157547;23;20400;-88
2023/09/22 11:45:22;;;;;;;1.00;0.70;;;26.30;82.20;;;;;;6157499;23;20483;-88
2023/09/22 11:47:49;;;;;;;1.00;0.70;;;26.40;82.20;;;;;;6157781;23;20396;-88
2023/09/22 11:50:24;;;;;;;1.00;0.70;;;26.40;82.20;;;;;;6157912;23;20446;-88
2023/09/22 11:52:51;;;;;;;1.00;0.73;;;26.40;82.10;;;;;;6157825;23;20485;-88
2023/09/22 11:55:18;;;;;;;1.10;0.90;;;26.50;82.10;;;;;;6158039;23;20458;-88
2023/09/22 11:57:45;;;;;;;1.10;0.90;;;26.50;82.00;;;;;;6157521;23;20431;-88
2023/09/22 12:00:15;;;;;;;1.10;0.80;;;26.50;82.10;;;;;;6157806;23;20396;-88
2023/09/22 12:02:42;;;;;;;1.10;0.73;;;26.40;82.00;;;;;;6157802;23;20454;-87
2023/09/22 12:05:09;;;;;;;1.03;0.70;;;26.40;82.10;;;;;;6157867;23;20407;-88
2023/09/22 12:07:36;;;;;;;1.10;0.90;;;26.50;82.20;;;;;;6157829;23;20431;-88
2023/09/22 12:10:04;;;;;;;1.00;0.80;;;26.50;82.20;;;;;;6157681;23;20530;-88
2023/09/22 12:12:30;;;;;;;1.40;0.90;;;26.50;82.20;;;;;;6157277;23;20404;-88
2023/09/22 12:14:57;;;;;;;1.03;0.73;;;26.50;82.00;;;;;;6157645;23;20490;-88
2023/09/22 12:17:26;;;;;;;1.20;0.70;;;26.50;82.00;;;;;;6157573;23;20725;-88
2023/09/22 12:19:53;;;;;;;1.03;0.80;;;26.60;82.10;;;;;;6157367;23;20459;-88
2023/09/22 12:22:20;;;;;;;1.00;0.70;;;26.60;82.10;;;;;;6157180;23;20714;-88
2023/09/22 12:24:47;;;;;;;1.10;0.80;;;26.60;83.00;;;;;;6157317;23;20404;-88
2023/09/22 12:27:13;;;;;;;1.60;0.80;;;26.60;82.10;;;;;;6157007;23;21022;-88
2023/09/22 12:29:40;;;;;;;1.00;0.70;;;26.60;82.10;;;;;;6157467;23;20518;-88
2023/09/22 12:32:07;;;;;;;1.40;0.80;;;26.60;82.10;;;;;;6157054;23;20498;-88
2023/09/22 12:34:35;;;;;;;1.10;0.73;;;26.60;82.20;;;;;;6157254;23;20412;-88
2023/09/22 12:37:02;;;;;;;1.40;1.00;;;26.70;82.10;;;;;;6156936;23;20435;-88
2023/09/22 12:39:29;;;;;;;1.10;0.90;;;26.70;82.10;;;;;;6157247;23;20400;-88
2023/09/22 12:41:56;;;;;;;1.10;0.70;;;26.70;82.00;;;;;;6157132;23;20482;-88
2023/09/22 12:44:23;;;;;;;1.20;0.70;;;26.80;82.10;;;;;;6157451;23;20484;-88
2023/09/22 12:46:51;;;;;;;1.03;0.80;;;26.70;82.00;;;;;;6157540;23;20404;-88
2023/09/22 12:49:18;;;;;;;1.07;0.73;;;26.80;82.90;;;;;;6156879;23;20436;-88
2023/09/22 12:51:46;;;;;;;1.73;0.93;;;26.80;82.10;;;;;;6157429;23;20474;-88
2023/09/22 12:54:12;;;;;;;1.10;0.67;;;26.80;82.00;;;;;;6156889;23;20493;-88